Wednesday, November 22, 2017, 8:01 AM EST
Back to Local

KAQW, N Adams Harriman-and-west

Location: North Adams, MA, United States Lat: 42.7
Local Time: 8:01 AM EST (13:01 GMT) Lon: -73.167
Time Zone: US/Eastern Elev: 652 ft

Show me the last for .
Show Decoded

2017-11-22 06:52 METAR KAQW 221152Z AUTO 09005KT 10SM CLR 02/M01 A2989 RMK AO2 SLP125 T00171006
                 10050 20000 58018 =
2017-11-22 05:52 METAR KAQW 221052Z AUTO 11004KT 10SM CLR 02/M01 A2991 RMK AO2 SLP132 T00171006 =
2017-11-22 04:52 METAR KAQW 220952Z AUTO 00000KT 10SM CLR 01/M01 A2993 RMK AO2 SLP140 T00061011 =
2017-11-22 03:52 METAR KAQW 220852Z AUTO 00000KT 10SM FEW085 01/M02 A2994 RMK AO2 SLP144
                 T00061017 57003 =
2017-11-22 02:52 METAR KAQW 220752Z AUTO 23003KT 10SM CLR 02/M01 A2995 RMK AO2 SLP146 T00221011 =
2017-11-22 01:52 METAR KAQW 220652Z AUTO 00000KT 10SM CLR 03/M01 A2994 RMK AO2 SLP143 T00281011 =
2017-11-22 00:52 METAR KAQW 220552Z AUTO 00000KT 10SM CLR 02/M02 A2995 RMK AO2 SLP146 T00221017
                 10117 20011 58006 =
2017-11-21 23:52 METAR KAQW 220452Z AUTO 00000KT 10SM CLR 06/M02 A2997 RMK AO2 SLP153 T00561017
                 401331050 =
2017-11-21 22:52 METAR KAQW 220352Z AUTO 00000KT 10SM CLR 06/M02 A2998 RMK AO2 SLP156 T00611017 =
2017-11-21 21:52 METAR KAQW 220252Z AUTO VRB05KT 10SM CLR 09/M02 A2997 RMK AO2 SLP152 T00891022
                 51007 =
2017-11-21 20:52 METAR KAQW 220152Z AUTO VRB03KT 10SM CLR 10/M03 A2997 RMK AO2 SLP153 T01001028 =
2017-11-21 19:52 METAR KAQW 220052Z AUTO 18003KT 10SM CLR 11/M03 A2995 RMK AO2 SLP148 T01061033 =
2017-11-21 18:52 METAR KAQW 212352Z AUTO 22009G20KT 190V260 10SM CLR 12/M04 A2995 RMK AO2 PK WND
                 22026/2256 SLP146 T01171044 10133 20111 53014 =
2017-11-21 17:52 METAR KAQW 212252Z AUTO 22014G26KT 10SM CLR 12/M05 A2992 RMK AO2 PK WND
                 24026/2252 SLP139 T01171050 =
2017-11-21 16:52 METAR KAQW 212152Z AUTO VRB05G16KT 10SM CLR 12/M05 A2992 RMK AO2 SLP139
                 T01171050 =
2017-11-21 15:52 METAR KAQW 212052Z AUTO VRB04G21KT 10SM CLR 12/M06 A2990 RMK AO2 SLP132
                 T01171056 56013 =
2017-11-21 14:52 METAR KAQW 211952Z AUTO 22007KT 170V250 10SM CLR 13/M06 A2992 RMK AO2 SLP137
                 T01281061 =
2017-11-21 13:52 METAR KAQW 211852Z AUTO VRB05KT 10SM CLR 13/M06 A2992 RMK AO2 SLP136 T01281061 =
2017-11-21 12:52 METAR KAQW 211752Z AUTO 25006G21KT 10SM CLR 12/M05 A2995 RMK AO2 SLP146
                 T01221050 10122 21039 56021 =
2017-11-21 11:52 METAR KAQW 211652Z AUTO 23010G18KT 10SM CLR 11/M05 A2995 RMK AO2 SLP149
                 T01111050 =
2017-11-21 10:52 METAR KAQW 211552Z AUTO 27007KT 210V310 10SM CLR 11/M06 A2997 RMK AO2 SLP154
                 T01061056 =
2017-11-21 09:52 METAR KAQW 211452Z AUTO 00000KT 10SM CLR 08/M06 A3001 RMK AO2 SLP167 T00831056
                 58013 =
2017-11-21 08:52 METAR KAQW 211352Z AUTO 11010KT 10SM CLR 03/M04 A3003 RMK AO2 SLP175 T00331039 =

Support USWX by starting your Amazon purchase here.